sensor_id;sensor_type;location;lat;lon;timestamp;pressure;altitude;pressure_sealevel;temperature;humidity
64139;BME280;50435;43.700;-79.318;2024-02-28T00:00:52;98707.45;;;10.06;52.26
64139;BME280;50435;43.700;-79.318;2024-02-28T00:03:19;98702.20;;;10.24;52.11
64139;BME280;50435;43.700;-79.318;2024-02-28T00:05:46;98707.72;;;10.12;52.10
64139;BME280;50435;43.700;-79.318;2024-02-28T00:08:13;98710.44;;;9.85;51.80
64139;BME280;50435;43.700;-79.318;2024-02-28T00:10:41;98710.57;;;9.72;51.95
64139;BME280;50435;43.700;-79.318;2024-02-28T00:13:08;98711.20;;;9.96;51.23
64139;BME280;50435;43.700;-79.318;2024-02-28T00:15:35;98719.70;;;9.90;50.80
64139;BME280;50435;43.700;-79.318;2024-02-28T00:18:03;98718.00;;;9.86;50.30
64139;BME280;50435;43.700;-79.318;2024-02-28T00:20:31;98716.96;;;9.61;49.71
64139;BME280;50435;43.700;-79.318;2024-02-28T00:22:58;98714.80;;;9.83;48.78
64139;BME280;50435;43.700;-79.318;2024-02-28T00:25:26;98712.10;;;9.89;49.59
64139;BME280;50435;43.700;-79.318;2024-02-28T00:27:53;98706.86;;;9.56;49.52
64139;BME280;50435;43.700;-79.318;2024-02-28T00:30:20;98707.31;;;9.13;49.03
64139;BME280;50435;43.700;-79.318;2024-02-28T00:32:47;98704.11;;;9.55;49.08
64139;BME280;50435;43.700;-79.318;2024-02-28T00:35:15;98708.35;;;9.89;48.84
64139;BME280;50435;43.700;-79.318;2024-02-28T00:37:42;98704.04;;;9.54;49.13
64139;BME280;50435;43.700;-79.318;2024-02-28T00:40:11;98707.87;;;9.47;49.03
64139;BME280;50435;43.700;-79.318;2024-02-28T00:42:39;98709.18;;;9.46;48.37
64139;BME280;50435;43.700;-79.318;2024-02-28T00:45:09;98705.80;;;9.41;48.28
64139;BME280;50435;43.700;-79.318;2024-02-28T00:47:36;98705.32;;;9.34;48.73
64139;BME280;50435;43.700;-79.318;2024-02-28T00:50:04;98704.03;;;9.28;49.02
64139;BME280;50435;43.700;-79.318;2024-02-28T00:52:32;98703.31;;;9.24;49.02
64139;BME280;50435;43.700;-79.318;2024-02-28T00:54:59;98705.85;;;9.45;49.11
64139;BME280;50435;43.700;-79.318;2024-02-28T00:57:27;98702.67;;;9.18;49.15
64139;BME280;50435;43.700;-79.318;2024-02-28T00:59:54;98705.01;;;9.43;48.81
64139;BME280;50435;43.700;-79.318;2024-02-28T01:02:22;98704.93;;;9.13;48.86
64139;BME280;50435;43.700;-79.318;2024-02-28T01:04:50;98701.03;;;9.40;48.84
64139;BME280;50435;43.700;-79.318;2024-02-28T01:07:17;98698.73;;;9.12;49.18
64139;BME280;50435;43.700;-79.318;2024-02-28T01:09:45;98697.14;;;9.17;48.93
64139;BME280;50435;43.700;-79.318;2024-02-28T01:12:12;98696.97;;;9.42;48.53
64139;BME280;50435;43.700;-79.318;2024-02-28T01:14:40;98697.97;;;9.10;48.86
64139;BME280;50435;43.700;-79.318;2024-02-28T01:17:07;98702.61;;;9.06;48.79
64139;BME280;50435;43.700;-79.318;2024-02-28T01:19:35;98703.40;;;9.09;49.13
64139;BME280;50435;43.700;-79.318;2024-02-28T01:22:02;98697.91;;;9.37;48.64
64139;BME280;50435;43.700;-79.318;2024-02-28T01:24:29;98694.65;;;8.97;48.85
64139;BME280;50435;43.700;-79.318;2024-02-28T01:26:56;98692.74;;;9.29;48.71
64139;BME280;50435;43.700;-79.318;2024-02-28T01:29:24;98691.19;;;9.04;48.62
64139;BME280;50435;43.700;-79.318;2024-02-28T01:31:52;98691.34;;;9.09;48.92
64139;BME280;50435;43.700;-79.318;2024-02-28T01:34:19;98686.15;;;8.60;48.75
64139;BME280;50435;43.700;-79.318;2024-02-28T01:36:47;98682.72;;;9.05;49.07
64139;BME280;50435;43.700;-79.318;2024-02-28T01:39:15;98686.69;;;9.53;49.52
64139;BME280;50435;43.700;-79.318;2024-02-28T01:41:49;98681.29;;;9.56;48.61
64139;BME280;50435;43.700;-79.318;2024-02-28T01:44:16;98684.91;;;9.06;48.45
64139;BME280;50435;43.700;-79.318;2024-02-28T01:46:44;98679.07;;;9.11;49.14
64139;BME280;50435;43.700;-79.318;2024-02-28T01:49:14;98679.02;;;9.08;48.35
64139;BME280;50435;43.700;-79.318;2024-02-28T01:51:42;98679.36;;;9.12;48.44
64139;BME280;50435;43.700;-79.318;2024-02-28T01:54:11;98678.32;;;9.45;48.82
64139;BME280;50435;43.700;-79.318;2024-02-28T01:56:39;98681.10;;;9.34;48.86
64139;BME280;50435;43.700;-79.318;2024-02-28T01:59:07;98683.85;;;8.98;48.80
64139;BME280;50435;43.700;-79.318;2024-02-28T02:01:37;98678.39;;;9.00;48.77
64139;BME280;50435;43.700;-79.318;2024-02-28T02:04:04;98678.47;;;9.30;49.00
64139;BME280;50435;43.700;-79.318;2024-02-28T02:06:32;98681.36;;;9.03;48.42
64139;BME280;50435;43.700;-79.318;2024-02-28T02:09:01;98682.48;;;9.42;49.02
64139;BME280;50435;43.700;-79.318;2024-02-28T02:11:28;98682.57;;;8.88;48.68
64139;BME280;50435;43.700;-79.318;2024-02-28T02:13:56;98676.67;;;9.32;48.86
64139;BME280;50435;43.700;-79.318;2024-02-28T02:16:23;98672.37;;;8.68;49.01
64139;BME280;50435;43.700;-79.318;2024-02-28T02:18:51;98668.99;;;8.94;48.93
64139;BME280;50435;43.700;-79.318;2024-02-28T02:21:19;98669.63;;;8.69;48.81
64139;BME280;50435;43.700;-79.318;2024-02-28T02:23:47;98665.67;;;9.21;48.82
64139;BME280;50435;43.700;-79.318;2024-02-28T02:26:14;98662.05;;;8.64;48.92
64139;BME280;50435;43.700;-79.318;2024-02-28T02:28:42;98663.10;;;8.96;48.31
64139;BME280;50435;43.700;-79.318;2024-02-28T02:31:11;98659.84;;;9.18;48.56
64139;BME280;50435;43.700;-79.318;2024-02-28T02:33:38;98655.38;;;8.96;48.47
64139;BME280;50435;43.700;-79.318;2024-02-28T02:36:06;98651.46;;;9.17;48.41
64139;BME280;50435;43.700;-79.318;2024-02-28T02:38:34;98645.96;;;8.93;48.68
64139;BME280;50435;43.700;-79.318;2024-02-28T02:41:02;98644.61;;;9.19;48.35
64139;BME280;50435;43.700;-79.318;2024-02-28T02:43:30;98641.92;;;8.64;48.72
64139;BME280;50435;43.700;-79.318;2024-02-28T02:45:57;98636.23;;;8.98;49.08
64139;BME280;50435;43.700;-79.318;2024-02-28T02:48:24;98633.12;;;8.47;49.20
64139;BME280;50435;43.700;-79.318;2024-02-28T02:50:52;98632.05;;;8.84;49.06
64139;BME280;50435;43.700;-79.318;2024-02-28T02:53:19;98630.97;;;8.05;49.35
64139;BME280;50435;43.700;-79.318;2024-02-28T02:55:46;98633.98;;;8.72;49.29
64139;BME280;50435;43.700;-79.318;2024-02-28T02:58:14;98634.80;;;8.64;49.45
64139;BME280;50435;43.700;-79.318;2024-02-28T03:00:41;98637.48;;;8.44;49.35
64139;BME280;50435;43.700;-79.318;2024-02-28T03:03:09;98631.92;;;8.67;49.10
64139;BME280;50435;43.700;-79.318;2024-02-28T03:05:36;98631.64;;;8.32;49.35
64139;BME280;50435;43.700;-79.318;2024-02-28T03:08:04;98627.76;;;8.58;49.57
64139;BME280;50435;43.700;-79.318;2024-02-28T03:10:32;98622.94;;;8.40;49.40
64139;BME280;50435;43.700;-79.318;2024-02-28T03:12:59;98622.79;;;8.24;49.44
64139;BME280;50435;43.700;-79.318;2024-02-28T03:15:27;98621.70;;;8.19;49.32
64139;BME280;50435;43.700;-79.318;2024-02-28T03:17:54;98612.21;;;8.46;49.33
64139;BME280;50435;43.700;-79.318;2024-02-28T03:20:21;98615.63;;;7.63;49.48
64139;BME280;50435;43.700;-79.318;2024-02-28T03:22:48;98614.43;;;8.07;49.44
64139;BME280;50435;43.700;-79.318;2024-02-28T03:25:16;98606.55;;;8.08;49.37
64139;BME280;50435;43.700;-79.318;2024-02-28T03:27:44;98599.03;;;8.26;49.23
64139;BME280;50435;43.700;-79.318;2024-02-28T03:30:11;98595.62;;;8.07;49.61
64139;BME280;50435;43.700;-79.318;2024-02-28T03:32:39;98587.48;;;8.06;49.59
64139;BME280;50435;43.700;-79.318;2024-02-28T03:35:07;98582.44;;;7.96;49.06
64139;BME280;50435;43.700;-79.318;2024-02-28T03:37:34;98578.20;;;8.01;49.48
64139;BME280;50435;43.700;-79.318;2024-02-28T03:40:01;98578.33;;;7.74;49.62
64139;BME280;50435;43.700;-79.318;2024-02-28T03:42:29;98581.22;;;7.96;49.33
64139;BME280;50435;43.700;-79.318;2024-02-28T03:44:56;98576.96;;;8.12;49.53
64139;BME280;50435;43.700;-79.318;2024-02-28T03:47:24;98575.39;;;7.86;49.46
64139;BME280;50435;43.700;-79.318;2024-02-28T03:49:52;98571.89;;;7.84;49.53
64139;BME280;50435;43.700;-79.318;2024-02-28T03:52:19;98574.68;;;7.98;49.60
64139;BME280;50435;43.700;-79.318;2024-02-28T03:54:46;98570.84;;;7.88;49.66
64139;BME280;50435;43.700;-79.318;2024-02-28T03:57:13;98567.50;;;7.73;49.61
64139;BME280;50435;43.700;-79.318;2024-02-28T03:59:41;98567.91;;;8.03;49.38
64139;BME280;50435;43.700;-79.318;2024-02-28T04:02:08;98564.80;;;7.49;49.44
64139;BME280;50435;43.700;-79.318;2024-02-28T04:04:36;98558.66;;;7.73;49.24
64139;BME280;50435;43.700;-79.318;2024-02-28T04:07:04;98553.91;;;7.61;49.23
64139;BME280;50435;43.700;-79.318;2024-02-28T04:09:31;98549.83;;;7.90;49.27
64139;BME280;50435;43.700;-79.318;2024-02-28T04:11:59;98540.40;;;7.74;49.12
64139;BME280;50435;43.700;-79.318;2024-02-28T04:14:26;98535.55;;;7.65;49.22
64139;BME280;50435;43.700;-79.318;2024-02-28T04:16:53;98534.60;;;7.92;49.03
64139;BME280;50435;43.700;-79.318;2024-02-28T04:19:21;98537.66;;;6.85;49.19
64139;BME280;50435;43.700;-79.318;2024-02-28T04:21:48;98539.12;;;7.83;48.99
64139;BME280;50435;43.700;-79.318;2024-02-28T04:24:16;98534.97;;;7.47;49.01
64139;BME280;50435;43.700;-79.318;2024-02-28T04:26:43;98529.38;;;7.33;49.40
64139;BME280;50435;43.700;-79.318;2024-02-28T04:29:10;98524.67;;;7.32;49.34
64139;BME280;50435;43.700;-79.318;2024-02-28T04:31:38;98522.46;;;7.67;49.01
64139;BME280;50435;43.700;-79.318;2024-02-28T04:34:05;98513.17;;;7.64;49.03
64139;BME280;50435;43.700;-79.318;2024-02-28T04:36:32;98511.09;;;7.38;48.89
64139;BME280;50435;43.700;-79.318;2024-02-28T04:39:00;98502.46;;;7.50;48.95
64139;BME280;50435;43.700;-79.318;2024-02-28T04:41:28;98497.37;;;6.97;49.15
64139;BME280;50435;43.700;-79.318;2024-02-28T04:43:55;98493.88;;;7.21;49.10
64139;BME280;50435;43.700;-79.318;2024-02-28T04:46:23;98490.71;;;7.65;48.74
64139;BME280;50435;43.700;-79.318;2024-02-28T04:48:50;98483.55;;;7.57;48.96
64139;BME280;50435;43.700;-79.318;2024-02-28T04:51:18;98482.07;;;7.87;48.74
64139;BME280;50435;43.700;-79.318;2024-02-28T04:53:46;98480.76;;;7.35;48.81
64139;BME280;50435;43.700;-79.318;2024-02-28T04:56:14;98485.65;;;7.67;48.77
64139;BME280;50435;43.700;-79.318;2024-02-28T04:58:41;98482.95;;;7.65;48.83
64139;BME280;50435;43.700;-79.318;2024-02-28T05:01:09;98477.18;;;7.67;48.72
64139;BME280;50435;43.700;-79.318;2024-02-28T05:03:36;98473.92;;;7.32;48.87
64139;BME280;50435;43.700;-79.318;2024-02-28T05:06:04;98473.20;;;7.67;48.72
64139;BME280;50435;43.700;-79.318;2024-02-28T05:08:32;98471.99;;;7.65;48.71
64139;BME280;50435;43.700;-79.318;2024-02-28T05:10:59;98461.58;;;7.66;48.60
64139;BME280;50435;43.700;-79.318;2024-02-28T05:13:26;98450.56;;;7.44;48.38
64139;BME280;50435;43.700;-79.318;2024-02-28T05:15:54;98438.57;;;7.54;48.17
64139;BME280;50435;43.700;-79.318;2024-02-28T05:18:21;98437.31;;;7.60;47.77
64139;BME280;50435;43.700;-79.318;2024-02-28T05:20:49;98442.46;;;7.85;47.93
64139;BME280;50435;43.700;-79.318;2024-02-28T05:23:16;98445.28;;;7.90;47.75
64139;BME280;50435;43.700;-79.318;2024-02-28T05:25:46;98444.45;;;7.83;48.36
64139;BME280;50435;43.700;-79.318;2024-02-28T05:28:13;98444.63;;;7.76;48.61
64139;BME280;50435;43.700;-79.318;2024-02-28T05:30:40;98449.02;;;7.71;49.00
64139;BME280;50435;43.700;-79.318;2024-02-28T05:33:07;98448.66;;;7.62;48.92
64139;BME280;50435;43.700;-79.318;2024-02-28T05:35:34;98435.86;;;7.44;48.77
64139;BME280;50435;43.700;-79.318;2024-02-28T05:38:02;98432.26;;;7.63;48.76
64139;BME280;50435;43.700;-79.318;2024-02-28T05:40:29;98435.58;;;7.28;48.94
64139;BME280;50435;43.700;-79.318;2024-02-28T05:42:57;98430.00;;;7.45;48.95
64139;BME280;50435;43.700;-79.318;2024-02-28T05:45:24;98435.68;;;7.34;49.10
64139;BME280;50435;43.700;-79.318;2024-02-28T05:47:51;98435.49;;;7.35;49.09
64139;BME280;50435;43.700;-79.318;2024-02-28T05:50:19;98434.44;;;7.03;49.13
64139;BME280;50435;43.700;-79.318;2024-02-28T05:52:46;98438.80;;;7.19;49.19
64139;BME280;50435;43.700;-79.318;2024-02-28T05:55:14;98435.00;;;7.41;49.28
64139;BME280;50435;43.700;-79.318;2024-02-28T05:57:41;98428.08;;;7.62;48.98
64139;BME280;50435;43.700;-79.318;2024-02-28T06:00:10;98432.13;;;7.13;49.05
64139;BME280;50435;43.700;-79.318;2024-02-28T06:02:38;98434.62;;;7.23;48.80
64139;BME280;50435;43.700;-79.318;2024-02-28T06:05:06;98423.21;;;7.26;48.90
64139;BME280;50435;43.700;-79.318;2024-02-28T06:07:34;98419.43;;;7.34;48.73
64139;BME280;50435;43.700;-79.318;2024-02-28T06:10:01;98413.56;;;7.34;48.61
64139;BME280;50435;43.700;-79.318;2024-02-28T06:12:29;98399.54;;;7.37;48.26
64139;BME280;50435;43.700;-79.318;2024-02-28T06:14:56;98395.23;;;7.08;48.34
64139;BME280;50435;43.700;-79.318;2024-02-28T06:17:23;98396.34;;;7.40;48.01
64139;BME280;50435;43.700;-79.318;2024-02-28T06:19:51;98380.13;;;7.53;47.64
64139;BME280;50435;43.700;-79.318;2024-02-28T06:22:18;98365.49;;;7.13;47.41
64139;BME280;50435;43.700;-79.318;2024-02-28T06:24:46;98367.89;;;7.73;46.95
64139;BME280;50435;43.700;-79.318;2024-02-28T06:27:13;98356.41;;;7.42;46.72
64139;BME280;50435;43.700;-79.318;2024-02-28T06:29:41;98351.17;;;7.52;46.10
64139;BME280;50435;43.700;-79.318;2024-02-28T06:32:08;98351.44;;;7.58;45.91
64139;BME280;50435;43.700;-79.318;2024-02-28T06:34:36;98346.33;;;7.62;49.39
64139;BME280;50435;43.700;-79.318;2024-02-28T06:37:03;98345.23;;;7.64;50.97
64139;BME280;50435;43.700;-79.318;2024-02-28T06:39:31;98336.66;;;7.70;48.72
64139;BME280;50435;43.700;-79.318;2024-02-28T06:41:58;98329.00;;;7.65;50.18
64139;BME280;50435;43.700;-79.318;2024-02-28T06:44:26;98319.56;;;7.70;51.17
64139;BME280;50435;43.700;-79.318;2024-02-28T06:46:54;98319.58;;;7.77;50.54
64139;BME280;50435;43.700;-79.318;2024-02-28T06:49:21;98311.78;;;8.03;51.43
64139;BME280;50435;43.700;-79.318;2024-02-28T06:51:49;98314.07;;;7.95;51.98
64139;BME280;50435;43.700;-79.318;2024-02-28T06:54:16;98310.58;;;8.26;51.71
64139;BME280;50435;43.700;-79.318;2024-02-28T06:56:43;98309.59;;;7.73;52.06
64139;BME280;50435;43.700;-79.318;2024-02-28T06:59:11;98310.95;;;7.77;51.57
64139;BME280;50435;43.700;-79.318;2024-02-28T07:01:39;98310.17;;;7.80;52.30
64139;BME280;50435;43.700;-79.318;2024-02-28T07:04:06;98306.36;;;8.05;51.86
64139;BME280;50435;43.700;-79.318;2024-02-28T07:06:34;98304.34;;;8.16;51.68
64139;BME280;50435;43.700;-79.318;2024-02-28T07:09:02;98301.58;;;7.97;52.24
64139;BME280;50435;43.700;-79.318;2024-02-28T07:11:30;98303.79;;;8.00;52.04
64139;BME280;50435;43.700;-79.318;2024-02-28T07:13:57;98305.37;;;8.00;52.46
64139;BME280;50435;43.700;-79.318;2024-02-28T07:16:25;98300.31;;;8.07;52.56
64139;BME280;50435;43.700;-79.318;2024-02-28T07:18:53;98293.81;;;8.09;52.28
64139;BME280;50435;43.700;-79.318;2024-02-28T07:21:20;98296.09;;;7.68;52.29
64139;BME280;50435;43.700;-79.318;2024-02-28T07:23:48;98268.95;;;8.44;52.48
64139;BME280;50435;43.700;-79.318;2024-02-28T07:26:16;98254.20;;;8.52;51.85
64139;BME280;50435;43.700;-79.318;2024-02-28T07:28:44;98248.50;;;8.31;52.11
64139;BME280;50435;43.700;-79.318;2024-02-28T07:31:14;98252.88;;;8.22;52.70
64139;BME280;50435;43.700;-79.318;2024-02-28T07:33:42;98248.47;;;8.31;52.85
64139;BME280;50435;43.700;-79.318;2024-02-28T07:36:09;98226.01;;;8.51;53.16
64139;BME280;50435;43.700;-79.318;2024-02-28T07:38:37;98210.43;;;8.23;52.22
64139;BME280;50435;43.700;-79.318;2024-02-28T07:41:04;98213.79;;;8.45;52.12
64139;BME280;50435;43.700;-79.318;2024-02-28T07:43:32;98209.85;;;8.27;51.03
64139;BME280;50435;43.700;-79.318;2024-02-28T07:45:59;98202.55;;;8.36;51.79
64139;BME280;50435;43.700;-79.318;2024-02-28T07:48:27;98204.34;;;8.32;51.68
64139;BME280;50435;43.700;-79.318;2024-02-28T07:50:54;98199.07;;;8.25;51.26
64139;BME280;50435;43.700;-79.318;2024-02-28T07:53:22;98195.77;;;7.86;52.30
64139;BME280;50435;43.700;-79.318;2024-02-28T07:55:49;98187.25;;;8.41;52.35
64139;BME280;50435;43.700;-79.318;2024-02-28T07:58:16;98178.32;;;8.40;53.02
64139;BME280;50435;43.700;-79.318;2024-02-28T08:00:44;98179.15;;;8.49;52.91
64139;BME280;50435;43.700;-79.318;2024-02-28T08:03:11;98180.91;;;8.69;53.15
64139;BME280;50435;43.700;-79.318;2024-02-28T08:05:39;98182.40;;;8.53;52.97
64139;BME280;50435;43.700;-79.318;2024-02-28T08:08:07;98169.23;;;8.58;53.11
64139;BME280;50435;43.700;-79.318;2024-02-28T08:10:35;98164.24;;;8.67;53.34
64139;BME280;50435;43.700;-79.318;2024-02-28T08:13:02;98164.84;;;8.64;53.13
64139;BME280;50435;43.700;-79.318;2024-02-28T08:15:30;98151.88;;;8.21;53.19
64139;BME280;50435;43.700;-79.318;2024-02-28T08:17:58;98146.33;;;8.71;51.21
64139;BME280;50435;43.700;-79.318;2024-02-28T08:20:26;98143.86;;;8.34;52.18
64139;BME280;50435;43.700;-79.318;2024-02-28T08:22:53;98160.99;;;8.82;52.41
64139;BME280;50435;43.700;-79.318;2024-02-28T08:25:21;98169.23;;;8.11;52.95
64139;BME280;50435;43.700;-79.318;2024-02-28T08:27:48;98165.03;;;8.89;52.75
64139;BME280;50435;43.700;-79.318;2024-02-28T08:30:16;98165.53;;;8.86;52.93
64139;BME280;50435;43.700;-79.318;2024-02-28T08:32:44;98173.30;;;8.81;53.23
64139;BME280;50435;43.700;-79.318;2024-02-28T08:35:11;98172.10;;;8.82;53.31
64139;BME280;50435;43.700;-79.318;2024-02-28T08:37:39;98182.20;;;8.82;53.17
64139;BME280;50435;43.700;-79.318;2024-02-28T08:40:07;98197.00;;;8.85;53.28
64139;BME280;50435;43.700;-79.318;2024-02-28T08:42:34;98187.99;;;8.42;53.52
64139;BME280;50435;43.700;-79.318;2024-02-28T08:45:02;98185.82;;;8.95;53.13
64139;BME280;50435;43.700;-79.318;2024-02-28T08:47:29;98194.52;;;8.64;53.62
64139;BME280;50435;43.700;-79.318;2024-02-28T08:49:57;98197.50;;;8.97;53.30
64139;BME280;50435;43.700;-79.318;2024-02-28T08:52:24;98184.83;;;8.51;52.74
64139;BME280;50435;43.700;-79.318;2024-02-28T08:54:52;98181.76;;;8.95;53.22
64139;BME280;50435;43.700;-79.318;2024-02-28T08:57:20;98165.42;;;8.27;53.49
64139;BME280;50435;43.700;-79.318;2024-02-28T08:59:47;98154.01;;;8.77;53.47
64139;BME280;50435;43.700;-79.318;2024-02-28T09:02:14;98131.44;;;9.00;53.80
64139;BME280;50435;43.700;-79.318;2024-02-28T09:04:41;98121.40;;;9.02;53.34
64139;BME280;50435;43.700;-79.318;2024-02-28T09:07:09;98109.24;;;8.78;53.08
64139;BME280;50435;43.700;-79.318;2024-02-28T09:09:41;98089.55;;;8.95;53.00
64139;BME280;50435;43.700;-79.318;2024-02-28T09:12:08;98094.70;;;8.98;53.67
64139;BME280;50435;43.700;-79.318;2024-02-28T09:14:36;98110.00;;;9.19;54.44
64139;BME280;50435;43.700;-79.318;2024-02-28T09:17:04;98136.79;;;9.06;54.24
64139;BME280;50435;43.700;-79.318;2024-02-28T09:19:31;98137.37;;;8.63;54.17
64139;BME280;50435;43.700;-79.318;2024-02-28T09:22:00;98147.83;;;9.15;54.47
64139;BME280;50435;43.700;-79.318;2024-02-28T09:24:27;98135.26;;;9.22;54.48
64139;BME280;50435;43.700;-79.318;2024-02-28T09:26:55;98121.11;;;9.35;54.10
64139;BME280;50435;43.700;-79.318;2024-02-28T09:29:22;98118.58;;;9.22;54.13
64139;BME280;50435;43.700;-79.318;2024-02-28T09:31:50;98124.61;;;8.90;54.44
64139;BME280;50435;43.700;-79.318;2024-02-28T09:34:17;98159.00;;;9.03;54.74
64139;BME280;50435;43.700;-79.318;2024-02-28T09:36:45;98178.58;;;9.57;52.60
64139;BME280;50435;43.700;-79.318;2024-02-28T09:39:13;98134.35;;;8.91;53.60
64139;BME280;50435;43.700;-79.318;2024-02-28T09:41:41;98059.62;;;8.98;54.20
64139;BME280;50435;43.700;-79.318;2024-02-28T09:44:08;98028.89;;;9.35;52.14
64139;BME280;50435;43.700;-79.318;2024-02-28T09:46:36;98007.67;;;9.65;51.48
64139;BME280;50435;43.700;-79.318;2024-02-28T09:49:04;98001.54;;;9.30;52.94
64139;BME280;50435;43.700;-79.318;2024-02-28T09:51:33;98015.58;;;9.33;52.70
64139;BME280;50435;43.700;-79.318;2024-02-28T09:54:02;98038.89;;;9.36;54.19
64139;BME280;50435;43.700;-79.318;2024-02-28T09:56:29;98033.36;;;9.48;54.34
64139;BME280;50435;43.700;-79.318;2024-02-28T09:58:57;98026.91;;;9.53;54.58
64139;BME280;50435;43.700;-79.318;2024-02-28T10:01:26;98031.95;;;10.03;54.25
64139;BME280;50435;43.700;-79.318;2024-02-28T10:03:54;98025.14;;;9.53;54.43
64139;BME280;50435;43.700;-79.318;2024-02-28T10:06:22;98033.39;;;9.18;53.98
64139;BME280;50435;43.700;-79.318;2024-02-28T10:08:49;98037.26;;;9.71;54.64
64139;BME280;50435;43.700;-79.318;2024-02-28T10:11:18;98011.73;;;9.80;54.76
64139;BME280;50435;43.700;-79.318;2024-02-28T10:13:47;98026.13;;;9.86;54.36
64139;BME280;50435;43.700;-79.318;2024-02-28T10:16:14;98041.10;;;9.95;54.16
64139;BME280;50435;43.700;-79.318;2024-02-28T10:18:42;98050.15;;;9.93;54.87
64139;BME280;50435;43.700;-79.318;2024-02-28T10:21:10;98038.15;;;9.96;53.44
64139;BME280;50435;43.700;-79.318;2024-02-28T10:23:38;97983.25;;;9.81;54.78
64139;BME280;50435;43.700;-79.318;2024-02-28T10:26:09;97961.95;;;9.99;54.24
64139;BME280;50435;43.700;-79.318;2024-02-28T10:28:37;97940.78;;;9.81;54.86
64139;BME280;50435;43.700;-79.318;2024-02-28T10:31:04;97953.35;;;10.11;54.40
64139;BME280;50435;43.700;-79.318;2024-02-28T10:33:32;97975.07;;;9.89;54.26
64139;BME280;50435;43.700;-79.318;2024-02-28T10:35:59;97974.89;;;10.12;54.70
64139;BME280;50435;43.700;-79.318;2024-02-28T10:38:27;97972.40;;;9.71;55.19
64139;BME280;50435;43.700;-79.318;2024-02-28T10:40:56;97968.47;;;10.26;55.07
64139;BME280;50435;43.700;-79.318;2024-02-28T10:43:25;97972.42;;;10.15;54.79
64139;BME280;50435;43.700;-79.318;2024-02-28T10:45:56;97961.02;;;10.23;54.75
64139;BME280;50435;43.700;-79.318;2024-02-28T10:48:25;97941.44;;;10.34;55.24
64139;BME280;50435;43.700;-79.318;2024-02-28T10:50:53;97926.24;;;10.06;54.79
64139;BME280;50435;43.700;-79.318;2024-02-28T10:53:22;97917.13;;;9.37;55.64
64139;BME280;50435;43.700;-79.318;2024-02-28T10:55:59;97912.58;;;10.39;55.35
64139;BME280;50435;43.700;-79.318;2024-02-28T10:58:34;97923.32;;;10.28;55.11
64139;BME280;50435;43.700;-79.318;2024-02-28T11:01:03;97923.02;;;10.26;54.45
64139;BME280;50435;43.700;-79.318;2024-02-28T11:03:31;97911.45;;;10.02;55.55
64139;BME280;50435;43.700;-79.318;2024-02-28T11:05:59;97902.35;;;10.42;55.13
64139;BME280;50435;43.700;-79.318;2024-02-28T11:08:27;97907.17;;;10.57;55.33
64139;BME280;50435;43.700;-79.318;2024-02-28T11:10:56;97904.94;;;10.37;55.48
64139;BME280;50435;43.700;-79.318;2024-02-28T11:13:25;97883.03;;;10.19;55.21
64139;BME280;50435;43.700;-79.318;2024-02-28T11:15:53;97874.16;;;10.17;55.16
64139;BME280;50435;43.700;-79.318;2024-02-28T11:18:21;97857.02;;;10.35;54.53
64139;BME280;50435;43.700;-79.318;2024-02-28T11:20:48;97858.12;;;10.41;55.13
64139;BME280;50435;43.700;-79.318;2024-02-28T11:23:17;97865.35;;;10.41;54.34
64139;BME280;50435;43.700;-79.318;2024-02-28T11:25:45;97857.28;;;10.41;54.86
64139;BME280;50435;43.700;-79.318;2024-02-28T11:28:13;97843.36;;;10.68;52.37
64139;BME280;50435;43.700;-79.318;2024-02-28T11:30:41;97834.68;;;10.55;54.07
64139;BME280;50435;43.700;-79.318;2024-02-28T11:33:09;97829.56;;;10.82;54.46
64139;BME280;50435;43.700;-79.318;2024-02-28T11:35:37;97820.08;;;10.65;54.95
64139;BME280;50435;43.700;-79.318;2024-02-28T11:38:06;97819.51;;;10.20;53.70
64139;BME280;50435;43.700;-79.318;2024-02-28T11:40:33;97830.22;;;10.39;54.12
64139;BME280;50435;43.700;-79.318;2024-02-28T11:43:01;97835.84;;;10.29;54.17
64139;BME280;50435;43.700;-79.318;2024-02-28T11:45:29;97839.25;;;10.50;54.55
64139;BME280;50435;43.700;-79.318;2024-02-28T11:47:56;97831.85;;;10.19;55.10
64139;BME280;50435;43.700;-79.318;2024-02-28T11:50:23;97848.80;;;9.71;54.98
64139;BME280;50435;43.700;-79.318;2024-02-28T11:52:51;97855.35;;;10.52;55.08
64139;BME280;50435;43.700;-79.318;2024-02-28T11:55:19;97833.55;;;10.31;54.34
64139;BME280;50435;43.700;-79.318;2024-02-28T11:57:46;97820.71;;;10.31;54.66
64139;BME280;50435;43.700;-79.318;2024-02-28T12:00:14;97838.45;;;10.46;54.84
64139;BME280;50435;43.700;-79.318;2024-02-28T12:02:41;97839.76;;;10.22;55.01
64139;BME280;50435;43.700;-79.318;2024-02-28T12:05:09;97812.33;;;10.69;54.63
64139;BME280;50435;43.700;-79.318;2024-02-28T12:07:37;97815.31;;;10.45;53.99
64139;BME280;50435;43.700;-79.318;2024-02-28T12:10:05;97798.08;;;10.40;54.37
64139;BME280;50435;43.700;-79.318;2024-02-28T12:12:32;97795.75;;;10.28;54.01
64139;BME280;50435;43.700;-79.318;2024-02-28T12:15:01;97779.89;;;10.20;54.27
64139;BME280;50435;43.700;-79.318;2024-02-28T12:17:29;97780.14;;;10.53;54.74
64139;BME280;50435;43.700;-79.318;2024-02-28T12:19:56;97775.91;;;10.34;54.46
64139;BME280;50435;43.700;-79.318;2024-02-28T12:22:26;97770.72;;;10.58;53.98
64139;BME280;50435;43.700;-79.318;2024-02-28T12:24:53;97765.75;;;10.54;53.98
64139;BME280;50435;43.700;-79.318;2024-02-28T12:27:21;97773.13;;;9.49;54.94
64139;BME280;50435;43.700;-79.318;2024-02-28T12:29:48;97770.49;;;10.28;54.28
64139;BME280;50435;43.700;-79.318;2024-02-28T12:32:15;97770.24;;;10.34;54.59
64139;BME280;50435;43.700;-79.318;2024-02-28T12:34:43;97768.04;;;10.83;54.03
64139;BME280;50435;43.700;-79.318;2024-02-28T12:37:10;97765.77;;;10.31;53.92
64139;BME280;50435;43.700;-79.318;2024-02-28T12:39:38;97763.92;;;10.32;53.87
64139;BME280;50435;43.700;-79.318;2024-02-28T12:42:07;97770.83;;;10.60;54.58
64139;BME280;50435;43.700;-79.318;2024-02-28T12:44:34;97784.93;;;10.78;54.58
64139;BME280;50435;43.700;-79.318;2024-02-28T12:47:02;97769.26;;;10.30;54.56
64139;BME280;50435;43.700;-79.318;2024-02-28T12:49:29;97774.70;;;10.16;54.60